Time;durP1;ratioP1;P1;durP2;ratioP2;P2;SDS_P1;SDS_P2;PMS_P1;PMS_P2;Temp;Humidity;BMP_temperature;BMP_pressure;BME280_temperature;BME280_humidity;BME280_pressure;Samples;Min_cycle;Max_cycle;Signal;HPM_P1;HPM_P2
2023/07/12 00:01:36;;;;;;;;;;;23.60;63.00;;;;;;5084762;28;19958;-38
2023/07/12 00:04:02;;;;;;;;;;;23.70;63.30;;;;;;5073428;28;19915;-38
2023/07/12 00:06:37;;;;;;;;;;;23.70;63.50;;;;;;5078242;28;19909;-38
2023/07/12 00:09:04;;;;;;;;;;;23.70;63.80;;;;;;5084738;28;19920;-38
2023/07/12 00:11:30;;;;;;;;;;;23.70;64.10;;;;;;5083836;28;19912;-38
2023/07/12 00:13:56;;;;;;;;;;;23.70;64.40;;;;;;5084430;28;19972;-37
2023/07/12 00:16:29;;;;;;;;;;;23.70;64.60;;;;;;5084458;28;19909;-38
2023/07/12 00:18:55;;;;;;;;;;;23.70;64.90;;;;;;5084311;28;19927;-37
2023/07/12 00:21:22;;;;;;;;;;;23.80;65.30;;;;;;5084325;28;19912;-38
2023/07/12 00:23:52;;;;;;;;;;;23.80;65.50;;;;;;5084301;28;19912;-38
2023/07/12 00:26:28;;;;;;;;;;;23.80;65.60;;;;;;5084233;28;19912;-37
2023/07/12 00:28:54;;;;;;;;;;;23.80;65.90;;;;;;5070034;28;19917;-37
2023/07/12 00:31:20;;;;;;;;;;;23.80;66.00;;;;;;5082015;28;19999;-37
2023/07/12 00:33:46;;;;;;;;;;;23.80;66.10;;;;;;5084594;28;19912;-38
2023/07/12 00:36:15;;;;;;;;;;;23.90;66.30;;;;;;5058200;28;19913;-38
2023/07/12 00:38:41;;;;;;;;;;;23.90;66.40;;;;;;5083811;28;20349;-38
2023/07/12 00:41:19;;;;;;;;;;;23.90;66.50;;;;;;5079973;28;20303;-38
2023/07/12 00:43:46;;;;;;;;;;;23.90;66.60;;;;;;5076909;28;19908;-38
2023/07/12 00:46:20;;;;;;;;;;;24.00;66.70;;;;;;5065923;28;19912;-37
2023/07/12 00:48:46;;;;;;;;;;;24.00;66.80;;;;;;5077399;28;19979;-38
2023/07/12 00:51:27;;;;;;;;;;;24.00;66.90;;;;;;5083648;28;20740;-38
2023/07/12 00:54:16;;;;;;;;;;;24.00;67.00;;;;;;5078017;28;19947;-37
2023/07/12 00:56:42;;;;;;;;;;;24.00;67.30;;;;;;5000689;28;19962;-37
2023/07/12 00:59:34;;;;;;;;;;;24.00;67.50;;;;;;5001900;28;19921;-37
2023/07/12 01:02:00;;;;;;;;;;;24.10;67.70;;;;;;4997344;28;19920;-38
2023/07/12 01:04:29;;;;;;;;;;;24.10;67.90;;;;;;5001496;28;20325;-37
2023/07/12 01:06:54;;;;;;;;;;;24.10;68.10;;;;;;4998155;28;19939;-38
2023/07/12 01:09:20;;;;;;;;;;;24.10;68.10;;;;;;5001386;28;19920;-38
2023/07/12 01:11:46;;;;;;;;;;;24.10;68.00;;;;;;5001784;28;20033;-36
2023/07/12 01:14:13;;;;;;;;;;;24.10;68.00;;;;;;5001529;28;19914;-38
2023/07/12 01:16:39;;;;;;;;;;;24.10;68.00;;;;;;4993903;28;19914;-39
2023/07/12 01:19:05;;;;;;;;;;;24.20;68.10;;;;;;5000020;28;19922;-38
2023/07/12 01:21:33;;;;;;;;;;;24.20;68.00;;;;;;5000838;28;20004;-37
2023/07/12 01:23:59;;;;;;;;;;;24.20;67.90;;;;;;5001064;28;19910;-37
2023/07/12 01:26:26;;;;;;;;;;;24.20;68.00;;;;;;5001045;28;19913;-37
2023/07/12 01:28:54;;;;;;;;;;;24.20;68.00;;;;;;4989588;28;19914;-37
2023/07/12 01:31:19;;;;;;;;;;;24.20;68.10;;;;;;5001150;28;20333;-37
2023/07/12 01:33:45;;;;;;;;;;;24.20;68.10;;;;;;5038789;28;20518;-38
2023/07/12 01:36:11;;;;;;;;;;;24.30;68.40;;;;;;5076137;28;19949;-38
2023/07/12 01:38:37;;;;;;;;;;;24.30;68.40;;;;;;5075718;28;19920;-37
2023/07/12 01:41:03;;;;;;;;;;;24.30;68.50;;;;;;5083057;28;19958;-38
2023/07/12 01:43:29;;;;;;;;;;;24.30;68.60;;;;;;5083246;28;19908;-38
2023/07/12 01:45:55;;;;;;;;;;;24.30;68.60;;;;;;5081760;28;20357;-37
2023/07/12 01:48:21;;;;;;;;;;;24.30;68.80;;;;;;5082917;28;19922;-37
2023/07/12 01:50:47;;;;;;;;;;;24.30;68.80;;;;;;5083205;28;19931;-37
2023/07/12 01:53:13;;;;;;;;;;;24.30;68.80;;;;;;5082846;28;19912;-38
2023/07/12 01:55:38;;;;;;;;;;;24.30;68.80;;;;;;5082211;28;19913;-38
2023/07/12 01:58:04;;;;;;;;;;;24.30;68.70;;;;;;5083199;28;19923;-38
2023/07/12 02:00:30;;;;;;;;;;;24.30;68.70;;;;;;5078770;28;20458;-37
2023/07/12 02:02:56;;;;;;;;;;;24.40;68.70;;;;;;5083246;28;19912;-37
2023/07/12 02:05:22;;;;;;;;;;;24.40;68.60;;;;;;5082026;28;20375;-38
2023/07/12 02:07:48;;;;;;;;;;;24.40;68.50;;;;;;5083030;28;19922;-38
2023/07/12 02:10:15;;;;;;;;;;;24.40;68.60;;;;;;5082562;28;19908;-37
2023/07/12 02:12:41;;;;;;;;;;;24.40;68.50;;;;;;5079433;28;19938;-37
2023/07/12 02:15:08;;;;;;;;;;;24.40;68.60;;;;;;5082057;28;19963;-38
2023/07/12 02:17:33;;;;;;;;;;;24.40;68.80;;;;;;5082293;28;19928;-38
2023/07/12 02:19:59;;;;;;;;;;;24.40;69.00;;;;;;5082846;28;19908;-37
2023/07/12 02:22:28;;;;;;;;;;;24.40;69.00;;;;;;5082648;28;19915;-37
2023/07/12 02:24:54;;;;;;;;;;;24.40;69.10;;;;;;5082715;28;19919;-38
2023/07/12 02:27:19;;;;;;;;;;;24.40;69.20;;;;;;5082154;28;20281;-37
2023/07/12 02:29:45;;;;;;;;;;;24.40;69.30;;;;;;5077450;28;19912;-38
2023/07/12 02:32:11;;;;;;;;;;;24.40;69.30;;;;;;5082219;28;19919;-37
2023/07/12 02:34:37;;;;;;;;;;;24.50;69.40;;;;;;5078743;28;19951;-37
2023/07/12 02:37:03;;;;;;;;;;;24.50;69.50;;;;;;5079881;28;19913;-37
2023/07/12 02:39:29;;;;;;;;;;;24.50;69.50;;;;;;5085579;28;19912;-37
2023/07/12 02:41:55;;;;;;;;;;;24.50;69.50;;;;;;5086106;28;19934;-37
2023/07/12 02:44:21;;;;;;;;;;;24.50;69.40;;;;;;5085748;28;20448;-37
2023/07/12 02:46:47;;;;;;;;;;;24.50;69.30;;;;;;5085864;28;19912;-38
2023/07/12 02:49:13;;;;;;;;;;;24.50;69.30;;;;;;5085271;28;19908;-38
2023/07/12 02:51:39;;;;;;;;;;;24.50;69.20;;;;;;5085730;28;19952;-37
2023/07/12 02:54:05;;;;;;;;;;;24.50;69.20;;;;;;5086029;28;19931;-37
2023/07/12 02:56:31;;;;;;;;;;;24.50;69.10;;;;;;5085691;28;19960;-37
2023/07/12 02:58:57;;;;;;;;;;;24.50;69.10;;;;;;5086037;28;19920;-38
2023/07/12 03:01:23;;;;;;;;;;;24.50;69.10;;;;;;5085566;28;19998;-38
2023/07/12 03:03:49;;;;;;;;;;;24.50;69.30;;;;;;5085702;28;20352;-36
2023/07/12 03:06:15;;;;;;;;;;;24.50;69.50;;;;;;5085857;28;19934;-37
2023/07/12 03:08:41;;;;;;;;;;;24.50;69.60;;;;;;5085607;28;20397;-37
2023/07/12 03:11:07;;;;;;;;;;;24.50;69.60;;;;;;5085532;28;19924;-37
2023/07/12 03:13:33;;;;;;;;;;;24.50;69.60;;;;;;5085460;28;19919;-38
2023/07/12 03:16:02;;;;;;;;;;;24.50;69.80;;;;;;5085750;28;19909;-38
2023/07/12 03:18:28;;;;;;;;;;;24.50;69.70;;;;;;5083477;28;19926;-38
2023/07/12 03:20:57;;;;;;;;;;;24.50;69.80;;;;;;5085850;28;19972;-38
2023/07/12 03:23:23;;;;;;;;;;;24.50;69.70;;;;;;5085129;28;19915;-38
2023/07/12 03:25:49;;;;;;;;;;;24.50;69.60;;;;;;5085496;28;19909;-37
2023/07/12 03:28:15;;;;;;;;;;;24.50;69.60;;;;;;5079643;28;19917;-38
2023/07/12 03:30:41;;;;;;;;;;;24.50;69.40;;;;;;5085080;28;19912;-38
2023/07/12 03:33:06;;;;;;;;;;;24.50;69.40;;;;;;5085569;28;19915;-37
2023/07/12 03:35:32;;;;;;;;;;;24.50;69.40;;;;;;5084983;28;20389;-37
2023/07/12 03:37:58;;;;;;;;;;;24.50;69.30;;;;;;5085326;28;19923;-37
2023/07/12 03:40:24;;;;;;;;;;;24.50;69.20;;;;;;5084344;28;19912;-38
2023/07/12 03:42:50;;;;;;;;;;;24.50;69.30;;;;;;5083128;28;19908;-37
2023/07/12 03:45:16;;;;;;;;;;;24.50;69.50;;;;;;5083817;28;19908;-38
2023/07/12 03:47:41;;;;;;;;;;;24.50;69.80;;;;;;5085348;28;19912;-38
2023/07/12 03:50:07;;;;;;;;;;;24.50;69.90;;;;;;5085015;28;19919;-38
2023/07/12 03:52:33;;;;;;;;;;;24.50;70.00;;;;;;5084376;28;20280;-36
2023/07/12 03:54:59;;;;;;;;;;;24.50;70.20;;;;;;5083636;28;19908;-38
2023/07/12 03:57:25;;;;;;;;;;;24.50;70.30;;;;;;5084474;28;20405;-41
2023/07/12 03:59:51;;;;;;;;;;;24.50;70.20;;;;;;5079941;28;19916;-38
2023/07/12 04:02:17;;;;;;;;;;;24.50;70.20;;;;;;5084274;28;20027;-38
2023/07/12 04:04:43;;;;;;;;;;;24.50;70.20;;;;;;5084576;28;19994;-37
2023/07/12 04:07:09;;;;;;;;;;;24.50;70.00;;;;;;5084848;28;19964;-38
2023/07/12 04:09:35;;;;;;;;;;;24.50;70.00;;;;;;5084476;28;19951;-38
2023/07/12 04:12:01;;;;;;;;;;;24.50;69.80;;;;;;5084720;28;19919;-37
2023/07/12 04:14:26;;;;;;;;;;;24.50;69.70;;;;;;5083926;28;19920;-37
2023/07/12 04:16:52;;;;;;;;;;;24.50;69.60;;;;;;5084775;28;19920;-38
2023/07/12 04:19:18;;;;;;;;;;;24.50;69.60;;;;;;5082236;28;19927;-37
2023/07/12 04:21:44;;;;;;;;;;;24.50;69.60;;;;;;5077732;28;19908;-38
2023/07/12 04:24:10;;;;;;;;;;;24.50;69.40;;;;;;5084262;28;19908;-37
2023/07/12 04:26:37;;;;;;;;;;;24.50;69.40;;;;;;5082335;28;19912;-37
2023/07/12 04:29:03;;;;;;;;;;;24.50;70.00;;;;;;5079279;28;19913;-37
2023/07/12 04:31:29;;;;;;;;;;;24.50;70.30;;;;;;5081520;28;19948;-37
2023/07/12 04:33:55;;;;;;;;;;;24.50;70.50;;;;;;5083541;28;19976;-38
2023/07/12 04:36:21;;;;;;;;;;;24.50;70.50;;;;;;5084029;28;19935;-38
2023/07/12 04:38:46;;;;;;;;;;;24.50;70.70;;;;;;5084148;28;20391;-37
2023/07/12 04:41:12;;;;;;;;;;;24.40;70.70;;;;;;5083852;28;19912;-38
2023/07/12 04:43:38;;;;;;;;;;;24.40;70.60;;;;;;5083770;28;19908;-38
2023/07/12 04:46:04;;;;;;;;;;;24.40;70.60;;;;;;5084151;28;20291;-38
2023/07/12 04:48:30;;;;;;;;;;;24.40;70.50;;;;;;5083758;28;19912;-37
2023/07/12 04:50:56;;;;;;;;;;;24.40;70.40;;;;;;5083697;28;19947;-37
2023/07/12 04:53:22;;;;;;;;;;;24.40;70.10;;;;;;5083918;28;19912;-38
2023/07/12 04:55:51;;;;;;;;;;;24.40;69.90;;;;;;5082091;28;19919;-37
2023/07/12 04:58:17;;;;;;;;;;;24.40;69.90;;;;;;5083699;28;19923;-38
2023/07/12 05:00:43;;;;;;;;;;;24.40;69.80;;;;;;5083976;28;19908;-37
2023/07/12 05:03:09;;;;;;;;;;;24.40;69.70;;;;;;5083098;28;19951;-37
2023/07/12 05:05:37;;;;;;;;;;;24.40;69.50;;;;;;5083201;28;19913;-38
2023/07/12 05:08:04;;;;;;;;;;;24.40;69.60;;;;;;5083815;28;20026;-37
2023/07/12 05:10:30;;;;;;;;;;;24.40;69.80;;;;;;5083276;28;20027;-37
2023/07/12 05:12:56;;;;;;;;;;;24.40;70.20;;;;;;5083786;28;19943;-38
2023/07/12 05:15:22;;;;;;;;;;;24.40;70.60;;;;;;5083125;28;19923;-38
2023/07/12 05:17:48;;;;;;;;;;;24.40;70.40;;;;;;5083726;28;19942;-37
2023/07/12 05:20:14;;;;;;;;;;;24.40;70.50;;;;;;5083444;28;19967;-38
2023/07/12 05:22:40;;;;;;;;;;;24.40;70.70;;;;;;5083632;28;19933;-38
2023/07/12 05:25:06;;;;;;;;;;;24.30;70.40;;;;;;5076523;28;20026;-46
2023/07/12 05:27:32;;;;;;;;;;;24.30;70.60;;;;;;5083068;28;19944;-37
2023/07/12 05:29:58;;;;;;;;;;;24.30;70.60;;;;;;5078244;28;20368;-37
2023/07/12 05:32:23;;;;;;;;;;;24.30;70.60;;;;;;5080205;28;19943;-37
2023/07/12 05:34:49;;;;;;;;;;;24.30;70.30;;;;;;5083220;28;19930;-38
2023/07/12 05:37:16;;;;;;;;;;;24.30;70.20;;;;;;5076626;28;19912;-38
2023/07/12 05:39:42;;;;;;;;;;;24.30;70.10;;;;;;5083166;28;19912;-37
2023/07/12 05:42:08;;;;;;;;;;;24.30;70.20;;;;;;5083031;28;19915;-37
2023/07/12 05:44:34;;;;;;;;;;;24.30;70.10;;;;;;5077151;28;19919;-37
2023/07/12 05:46:59;;;;;;;;;;;24.30;70.00;;;;;;5083307;28;19914;-37
2023/07/12 05:49:25;;;;;;;;;;;24.30;70.10;;;;;;5082841;28;19915;-38
2023/07/12 05:51:52;;;;;;;;;;;24.30;70.00;;;;;;5080978;28;19917;-37
2023/07/12 05:54:17;;;;;;;;;;;24.30;70.10;;;;;;5082890;28;19913;-37
2023/07/12 05:56:43;;;;;;;;;;;24.30;70.30;;;;;;5082905;28;20339;-37
2023/07/12 05:59:09;;;;;;;;;;;24.30;70.40;;;;;;5077671;28;19921;-37
2023/07/12 06:01:35;;;;;;;;;;;24.30;70.40;;;;;;5078668;28;20010;-37
2023/07/12 06:04:01;;;;;;;;;;;24.30;70.60;;;;;;5082977;28;19912;-37
2023/07/12 06:06:27;;;;;;;;;;;24.30;70.50;;;;;;5082414;28;19919;-38
2023/07/12 06:08:53;;;;;;;;;;;24.30;70.50;;;;;;5084544;28;19917;-38
2023/07/12 06:11:19;;;;;;;;;;;24.20;70.60;;;;;;5086764;28;19912;-38
2023/07/12 06:13:45;;;;;;;;;;;24.20;70.50;;;;;;5080385;28;19999;-37
2023/07/12 06:16:11;;;;;;;;;;;24.20;70.60;;;;;;5086822;28;19916;-37
2023/07/12 06:18:37;;;;;;;;;;;24.20;70.50;;;;;;5086423;28;19916;-37
2023/07/12 06:21:03;;;;;;;;;;;24.20;70.50;;;;;;5081613;28;19979;-38
2023/07/12 06:23:29;;;;;;;;;;;24.20;70.50;;;;;;5078504;28;19916;-37
2023/07/12 06:25:58;;;;;;;;;;;24.20;70.40;;;;;;5086437;28;19924;-37
2023/07/12 06:28:24;;;;;;;;;;;24.20;70.30;;;;;;5085926;28;19913;-37
2023/07/12 06:30:50;;;;;;;;;;;24.20;70.40;;;;;;5083091;28;19909;-37
2023/07/12 06:33:16;;;;;;;;;;;24.20;70.40;;;;;;5085602;28;19939;-37
2023/07/12 06:35:42;;;;;;;;;;;24.20;70.30;;;;;;5085898;28;19916;-37
2023/07/12 06:38:08;;;;;;;;;;;24.20;70.40;;;;;;5086946;28;19963;-38
2023/07/12 06:40:34;;;;;;;;;;;24.20;70.30;;;;;;5085853;28;19909;-37
2023/07/12 06:43:00;;;;;;;;;;;24.20;70.40;;;;;;5086591;28;19912;-37
2023/07/12 06:45:25;;;;;;;;;;;24.20;70.70;;;;;;5085842;28;19916;-38
2023/07/12 06:47:51;;;;;;;;;;;24.10;70.60;;;;;;5086216;28;19916;-37
2023/07/12 06:50:17;;;;;;;;;;;24.10;71.50;;;;;;5085338;28;19934;-37
2023/07/12 06:52:43;;;;;;;;;;;24.10;70.70;;;;;;5086133;28;20038;-37
2023/07/12 06:55:09;;;;;;;;;;;24.10;70.70;;;;;;5086111;28;19979;-37
2023/07/12 06:57:35;;;;;;;;;;;24.10;70.70;;;;;;5085527;28;19927;-38
2023/07/12 07:00:05;;;;;;;;;;;24.10;70.70;;;;;;5081351;28;19944;-37
2023/07/12 07:02:31;;;;;;;;;;;24.10;70.70;;;;;;5085540;28;19912;-38
2023/07/12 07:04:57;;;;;;;;;;;24.10;70.70;;;;;;5068151;28;19930;-37
2023/07/12 07:07:23;;;;;;;;;;;24.10;70.70;;;;;;5083292;28;19920;-37
2023/07/12 07:09:48;;;;;;;;;;;24.10;70.60;;;;;;5086096;28;19913;-37
2023/07/12 07:12:15;;;;;;;;;;;24.10;70.60;;;;;;5085559;28;19931;-37
2023/07/12 07:14:41;;;;;;;;;;;24.10;70.60;;;;;;5078114;28;19916;-38
2023/07/12 07:17:07;;;;;;;;;;;24.10;70.60;;;;;;5085411;28;19908;-37
2023/07/12 07:19:33;;;;;;;;;;;24.10;70.60;;;;;;5084615;28;19975;-37
2023/07/12 07:21:59;;;;;;;;;;;24.10;70.60;;;;;;5085085;28;19982;-37
2023/07/12 07:24:25;;;;;;;;;;;24.10;70.60;;;;;;5085235;28;19912;-37
2023/07/12 07:26:51;;;;;;;;;;;24.00;71.50;;;;;;5085658;28;19923;-37
2023/07/12 07:29:17;;;;;;;;;;;24.00;70.80;;;;;;5080392;28;19916;-37
2023/07/12 07:31:43;;;;;;;;;;;24.00;70.80;;;;;;5084284;28;19978;-37
2023/07/12 07:34:09;;;;;;;;;;;24.00;70.90;;;;;;5085543;28;19908;-37
2023/07/12 07:36:35;;;;;;;;;;;24.00;70.80;;;;;;5078809;28;20769;-37
2023/07/12 07:39:01;;;;;;;;;;;24.00;70.80;;;;;;5085277;28;19916;-37
2023/07/12 07:41:27;;;;;;;;;;;24.00;70.80;;;;;;5085079;28;19934;-37
2023/07/12 07:43:53;;;;;;;;;;;24.00;71.00;;;;;;5081288;28;19999;-37
2023/07/12 07:46:19;;;;;;;;;;;24.00;70.90;;;;;;5085236;28;20387;-37
2023/07/12 07:48:45;;;;;;;;;;;24.00;71.70;;;;;;5074872;28;19917;-37
2023/07/12 07:51:12;;;;;;;;;;;24.00;70.80;;;;;;5085191;28;19919;-38
2023/07/12 07:53:38;;;;;;;;;;;24.00;70.90;;;;;;5085022;28;19913;-37
2023/07/12 07:56:04;;;;;;;;;;;24.00;70.80;;;;;;5083948;28;19915;-38
2023/07/12 07:58:30;;;;;;;;;;;24.00;70.80;;;;;;5079407;28;19951;-37
2023/07/12 08:00:56;;;;;;;;;;;23.90;70.80;;;;;;5080486;28;19912;-37
2023/07/12 08:03:22;;;;;;;;;;;23.90;70.70;;;;;;5084847;28;19913;-37
2023/07/12 08:05:48;;;;;;;;;;;23.90;70.70;;;;;;5084507;28;19966;-37
2023/07/12 08:08:14;;;;;;;;;;;23.90;70.80;;;;;;5084400;28;19921;-37
2023/07/12 08:10:40;;;;;;;;;;;23.90;70.80;;;;;;5084728;28;19918;-37
2023/07/12 08:13:05;;;;;;;;;;;23.90;70.80;;;;;;5084840;28;20003;-37
2023/07/12 08:15:31;;;;;;;;;;;23.90;70.80;;;;;;5080763;28;19915;-37
2023/07/12 08:17:57;;;;;;;;;;;23.90;70.90;;;;;;5084686;28;19920;-38
2023/07/12 08:20:24;;;;;;;;;;;23.90;71.00;;;;;;5084529;28;19909;-37
2023/07/12 08:22:50;;;;;;;;;;;23.90;71.20;;;;;;5085080;28;19913;-37
2023/07/12 08:25:16;;;;;;;;;;;23.80;71.10;;;;;;5084253;28;20474;-37
2023/07/12 08:27:42;;;;;;;;;;;23.80;71.20;;;;;;5082517;28;20272;-38
2023/07/12 08:30:08;;;;;;;;;;;23.80;71.20;;;;;;5080640;28;19912;-37
2023/07/12 08:32:34;;;;;;;;;;;23.80;71.10;;;;;;5083528;28;19924;-37
2023/07/12 08:35:00;;;;;;;;;;;23.80;71.10;;;;;;5084138;28;19912;-37
2023/07/12 08:37:26;;;;;;;;;;;23.80;71.00;;;;;;5083210;28;19916;-37
2023/07/12 08:39:52;;;;;;;;;;;23.80;71.10;;;;;;5083882;28;19916;-37
2023/07/12 08:42:22;;;;;;;;;;;23.80;71.00;;;;;;5084175;28;19934;-36
2023/07/12 08:44:47;;;;;;;;;;;23.80;71.10;;;;;;5084459;28;19919;-36
2023/07/12 08:47:22;;;;;;;;;;;23.80;71.10;;;;;;5083968;28;19908;-36
2023/07/12 08:49:48;;;;;;;;;;;23.80;71.10;;;;;;5058790;28;20376;-36
2023/07/12 08:52:18;;;;;;;;;;;23.80;71.10;;;;;;5083880;28;19909;-37
2023/07/12 08:54:44;;;;;;;;;;;23.80;71.10;;;;;;5082346;28;19960;-37
2023/07/12 08:57:37;;;;;;;;;;;23.80;71.10;;;;;;5083687;28;20003;-37
2023/07/12 09:00:32;;;;;;;;;;;23.70;71.20;;;;;;5076772;28;19976;-37
2023/07/12 09:02:58;;;;;;;;;;;23.70;71.10;;;;;;5079370;28;19912;-37
2023/07/12 09:05:24;;;;;;;;;;;23.70;71.20;;;;;;5083316;28;19919;-37
2023/07/12 09:08:10;;;;;;;;;;;23.70;71.10;;;;;;5083219;28;19917;-37
2023/07/12 09:10:39;;;;;;;;;;;23.70;71.20;;;;;;5069067;28;19912;-37
2023/07/12 09:13:05;;;;;;;;;;;23.70;71.30;;;;;;5083970;28;19908;-37
2023/07/12 09:15:36;;;;;;;;;;;23.70;71.30;;;;;;5082552;28;19954;-37
2023/07/12 09:18:04;;;;;;;;;;;23.70;71.30;;;;;;5054358;28;20694;-37
2023/07/12 09:20:31;;;;;;;;;;;23.70;71.30;;;;;;5082247;28;19935;-37
2023/07/12 09:22:57;;;;;;;;;;;23.70;71.20;;;;;;5083333;28;19934;-37
2023/07/12 09:25:24;;;;;;;;;;;23.70;71.30;;;;;;5083023;28;19915;-37
2023/07/12 09:27:51;;;;;;;;;;;23.70;71.20;;;;;;5082985;28;19908;-37
2023/07/12 09:30:22;;;;;;;;;;;23.70;71.30;;;;;;5083190;28;19912;-37
2023/07/12 09:32:49;;;;;;;;;;;23.70;71.20;;;;;;5079286;28;19912;-37
2023/07/12 09:35:33;;;;;;;;;;;23.60;71.30;;;;;;5083371;28;19923;-37
2023/07/12 09:38:00;;;;;;;;;;;23.60;71.30;;;;;;5078193;28;19916;-37
2023/07/12 09:40:28;;;;;;;;;;;23.60;71.40;;;;;;5080771;28;20007;-37
2023/07/12 09:42:56;;;;;;;;;;;23.60;71.40;;;;;;5080932;28;19912;-37
2023/07/12 09:45:22;;;;;;;;;;;23.60;71.30;;;;;;5083126;28;20575;-37
2023/07/12 09:47:58;;;;;;;;;;;23.60;71.40;;;;;;5083035;28;20407;-37
2023/07/12 09:50:42;;;;;;;;;;;23.60;71.40;;;;;;5082892;28;19912;-37
2023/07/12 09:53:23;;;;;;;;;;;23.60;71.30;;;;;;5082867;28;20015;-37
2023/07/12 09:56:01;;;;;;;;;;;23.60;71.40;;;;;;5058538;28;19908;-37
2023/07/12 09:58:27;;;;;;;;;;;23.60;71.50;;;;;;5062907;28;19921;-37
2023/07/12 10:00:55;;;;;;;;;;;23.60;71.50;;;;;;5081993;28;19913;-37
2023/07/12 10:03:26;;;;;;;;;;;23.60;71.50;;;;;;5076170;28;19912;-37
2023/07/12 10:05:59;;;;;;;;;;;23.60;71.60;;;;;;5079332;28;19919;-37
2023/07/12 10:08:26;;;;;;;;;;;23.50;71.50;;;;;;5077690;28;19917;-37
2023/07/12 10:11:10;;;;;;;;;;;23.50;71.50;;;;;;5064640;28;19919;-37
2023/07/12 10:13:38;;;;;;;;;;;23.50;71.60;;;;;;5064609;28;19912;-38
2023/07/12 10:16:05;;;;;;;;;;;23.50;71.60;;;;;;5082757;28;19908;-38
2023/07/12 10:18:32;;;;;;;;;;;23.50;71.60;;;;;;5082755;28;19973;-38
2023/07/12 10:20:58;;;;;;;;;;;23.50;71.60;;;;;;5064552;28;19920;-38
2023/07/12 10:23:25;;;;;;;;;;;23.50;71.70;;;;;;5064668;28;19913;-37
2023/07/12 10:25:55;;;;;;;;;;;23.50;71.80;;;;;;5082833;28;19920;-37
2023/07/12 10:28:26;;;;;;;;;;;23.50;71.70;;;;;;5064801;28;19934;-37
2023/07/12 10:30:52;;;;;;;;;;;23.50;71.70;;;;;;5064453;28;19908;-38
2023/07/12 10:33:46;;;;;;;;;;;23.50;71.70;;;;;;5079755;28;19912;-38
2023/07/12 10:36:15;;;;;;;;;;;23.50;71.60;;;;;;4993192;28;19918;-38
2023/07/12 10:38:41;;;;;;;;;;;23.50;71.70;;;;;;4993289;28;19928;-38
2023/07/12 10:41:13;;;;;;;;;;;23.50;71.70;;;;;;4994715;28;19914;-37
2023/07/12 10:43:41;;;;;;;;;;;23.40;71.70;;;;;;4986118;28;19958;-37
2023/07/12 10:46:09;;;;;;;;;;;23.40;71.60;;;;;;4976736;28;20027;-38
2023/07/12 10:48:35;;;;;;;;;;;23.40;71.60;;;;;;4976435;28;19920;-38
2023/07/12 10:51:19;;;;;;;;;;;23.40;71.60;;;;;;4993061;28;19914;-37
2023/07/12 10:53:52;;;;;;;;;;;23.40;71.60;;;;;;4986418;28;19920;-37
2023/07/12 10:56:38;;;;;;;;;;;23.40;71.70;;;;;;4996659;28;19920;-37
2023/07/12 10:59:05;;;;;;;;;;;23.40;71.70;;;;;;5008367;28;19929;-37
2023/07/12 11:01:43;;;;;;;;;;;23.40;71.70;;;;;;5005299;28;20707;-38
2023/07/12 11:04:12;;;;;;;;;;;23.40;71.60;;;;;;4990469;28;19993;-38
2023/07/12 11:06:58;;;;;;;;;;;23.40;71.70;;;;;;5009238;28;20414;-38
2023/07/12 11:09:24;;;;;;;;;;;23.40;71.70;;;;;;4997666;28;19953;-37
2023/07/12 11:11:57;;;;;;;;;;;23.40;71.70;;;;;;5003580;28;20376;-37
2023/07/12 11:14:24;;;;;;;;;;;23.40;71.80;;;;;;5063579;28;19931;-37
2023/07/12 11:16:51;;;;;;;;;;;23.40;71.80;;;;;;5066057;28;20449;-37
2023/07/12 11:19:50;;;;;;;;;;;23.30;71.70;;;;;;5065488;28;20016;-38
2023/07/12 11:22:22;;;;;;;;;;;23.30;71.70;;;;;;5019886;28;20521;-37
2023/07/12 11:25:01;;;;;;;;;;;23.30;71.70;;;;;;5022860;28;19972;-38
2023/07/12 11:27:52;;;;;;;;;;;23.30;71.80;;;;;;5023206;28;19984;-37
2023/07/12 11:30:36;;;;;;;;;;;23.30;71.90;;;;;;5019503;28;19914;-37
2023/07/12 11:33:15;;;;;;;;;;;23.30;71.80;;;;;;5023355;28;19940;-38
2023/07/12 11:35:48;;;;;;;;;;;23.30;71.90;;;;;;5002499;28;19920;-37
2023/07/12 11:38:16;;;;;;;;;;;23.30;71.90;;;;;;5005080;28;19980;-38
2023/07/12 11:40:43;;;;;;;;;;;23.30;72.00;;;;;;5022760;28;19917;-41
2023/07/12 11:43:24;;;;;;;;;;;23.30;72.00;;;;;;5002071;28;20003;-38
2023/07/12 11:45:54;;;;;;;;;;;23.30;72.00;;;;;;5022944;28;19909;-38
2023/07/12 11:48:21;;;;;;;;;;;23.30;72.20;;;;;;5006418;28;20472;-37
2023/07/12 11:50:47;;;;;;;;;;;23.20;72.00;;;;;;5006580;28;19948;-37
2023/07/12 11:53:14;;;;;;;;;;;23.30;72.10;;;;;;5006553;28;19917;-38
2023/07/12 11:55:40;;;;;;;;;;;23.30;72.10;;;;;;5022623;28;20004;-38
2023/07/12 11:58:21;;;;;;;;;;;23.20;71.90;;;;;;5039033;28;19960;-38
2023/07/12 12:00:48;;;;;;;;;;;23.20;72.00;;;;;;5058263;28;19912;-37
2023/07/12 12:03:14;;;;;;;;;;;23.20;72.10;;;;;;5064513;28;19915;-38
2023/07/12 12:05:40;;;;;;;;;;;23.20;72.00;;;;;;5060269;28;19917;-38
2023/07/12 12:08:06;;;;;;;;;;;23.20;72.00;;;;;;5060881;28;20570;-37
2023/07/12 12:10:35;;;;;;;;;;;23.20;72.10;;;;;;5062916;28;19912;-38
2023/07/12 12:13:00;;;;;;;;;;;23.20;72.10;;;;;;5064282;28;19956;-40
2023/07/12 12:15:28;;;;;;;;;;;23.20;72.10;;;;;;5062542;28;19982;-37
2023/07/12 12:17:55;;;;;;;;;;;23.20;72.30;;;;;;5064960;28;19946;-37
2023/07/12 12:20:25;;;;;;;;;;;23.20;72.30;;;;;;5064243;28;19943;-38
2023/07/12 12:22:56;;;;;;;;;;;23.20;72.40;;;;;;5064670;28;19912;-38
2023/07/12 12:25:23;;;;;;;;;;;23.20;72.40;;;;;;5064480;28;19923;-37
2023/07/12 12:27:49;;;;;;;;;;;23.20;72.40;;;;;;5064187;28;19918;-39
2023/07/12 12:30:15;;;;;;;;;;;23.20;72.40;;;;;;5063081;28;20023;-38
2023/07/12 12:32:41;;;;;;;;;;;23.20;72.40;;;;;;5063719;28;19940;-38
2023/07/12 12:35:11;;;;;;;;;;;23.20;72.40;;;;;;5064006;28;19908;-38
2023/07/12 12:37:37;;;;;;;;;;;23.20;72.40;;;;;;5062882;28;20757;-38
2023/07/12 12:40:04;;;;;;;;;;;23.20;72.40;;;;;;5064013;28;19922;-38
2023/07/12 12:42:30;;;;;;;;;;;23.20;72.40;;;;;;5063796;28;19909;-38
2023/07/12 12:44:56;;;;;;;;;;;23.20;72.40;;;;;;5064172;28;19982;-38
2023/07/12 12:47:23;;;;;;;;;;;23.20;72.50;;;;;;5064086;28;19916;-38
2023/07/12 12:49:49;;;;;;;;;;;23.20;72.50;;;;;;5063946;28;20284;-38
2023/07/12 12:52:18;;;;;;;;;;;23.20;72.40;;;;;;5063918;28;19916;-37
2023/07/12 12:54:44;;;;;;;;;;;23.20;72.60;;;;;;5063213;28;19931;-38
2023/07/12 12:57:10;;;;;;;;;;;23.20;72.70;;;;;;5063858;28;19913;-38
2023/07/12 12:59:35;;;;;;;;;;;23.20;72.90;;;;;;5063319;28;19928;-38
2023/07/12 13:02:01;;;;;;;;;;;23.20;72.90;;;;;;5064337;28;19931;-38
2023/07/12 13:04:27;;;;;;;;;;;23.20;72.90;;;;;;5063149;28;19919;-37
2023/07/12 13:06:53;;;;;;;;;;;23.20;73.00;;;;;;5065448;28;19940;-38
2023/07/12 13:09:22;;;;;;;;;;;23.20;73.30;;;;;;5083310;28;19908;-37
2023/07/12 13:11:49;;;;;;;;;;;23.20;73.20;;;;;;5083741;28;19916;-37
2023/07/12 13:14:14;;;;;;;;;;;23.20;73.20;;;;;;5082492;28;19908;-38
2023/07/12 13:16:40;;;;;;;;;;;23.20;73.10;;;;;;5083730;28;19955;-38
2023/07/12 13:19:08;;;;;;;;;;;23.20;73.10;;;;;;5083030;28;19920;-38
2023/07/12 13:21:34;;;;;;;;;;;23.20;73.10;;;;;;5065011;28;19913;-38
2023/07/12 13:24:00;;;;;;;;;;;23.20;73.00;;;;;;5083380;28;20028;-38
2023/07/12 13:26:26;;;;;;;;;;;23.20;72.90;;;;;;5083169;28;19916;-38
2023/07/12 13:28:52;;;;;;;;;;;23.20;72.80;;;;;;5083359;28;20410;-40
2023/07/12 13:31:19;;;;;;;;;;;23.20;72.80;;;;;;5080756;28;19912;-37
2023/07/12 13:33:45;;;;;;;;;;;23.30;73.00;;;;;;5081495;28;19908;-37
2023/07/12 13:36:31;;;;;;;;;;;23.30;73.10;;;;;;5076919;28;20383;-38
2023/07/12 13:38:58;;;;;;;;;;;23.30;73.00;;;;;;5077047;28;20039;-38
2023/07/12 13:41:24;;;;;;;;;;;23.30;73.10;;;;;;5082902;28;20426;-38
2023/07/12 13:43:53;;;;;;;;;;;23.30;73.20;;;;;;5082852;28;19909;-38
2023/07/12 13:46:18;;;;;;;;;;;23.30;73.40;;;;;;5083038;28;19930;-38
2023/07/12 13:48:44;;;;;;;;;;;23.30;74.40;;;;;;5082877;28;20396;-38
2023/07/12 13:51:20;;;;;;;;;;;23.30;74.10;;;;;;5083251;28;19912;-38
2023/07/12 13:53:47;;;;;;;;;;;23.40;74.00;;;;;;5083125;28;19934;-38
2023/07/12 13:56:13;;;;;;;;;;;23.40;74.00;;;;;;5083008;28;19983;-39
2023/07/12 13:58:39;;;;;;;;;;;23.40;73.70;;;;;;5075342;28;19960;-38
2023/07/12 14:01:05;;;;;;;;;;;23.40;73.40;;;;;;5082980;28;19909;-37
2023/07/12 14:03:30;;;;;;;;;;;23.40;73.60;;;;;;5082758;28;19971;-38
2023/07/12 14:05:56;;;;;;;;;;;23.50;73.80;;;;;;5082497;28;19912;-38
2023/07/12 14:08:22;;;;;;;;;;;23.50;73.90;;;;;;5076006;28;19924;-38
2023/07/12 14:10:48;;;;;;;;;;;23.50;74.00;;;;;;5083016;28;20365;-38
2023/07/12 14:13:16;;;;;;;;;;;23.50;74.10;;;;;;5082565;28;19915;-38
2023/07/12 14:15:41;;;;;;;;;;;23.50;74.00;;;;;;5074473;28;20564;-38
2023/07/12 14:18:08;;;;;;;;;;;23.50;74.10;;;;;;5083117;28;19927;-38
2023/07/12 14:20:34;;;;;;;;;;;23.60;74.10;;;;;;5082265;28;19913;-38